createdAt,value
2019-03-27T00:00:39.213Z,60.30
2019-03-27T00:03:09.144Z,60.40
2019-03-27T00:05:39.364Z,60.70
2019-03-27T00:08:09.298Z,60.80
2019-03-27T00:10:39.311Z,61.00
2019-03-27T00:13:09.178Z,61.40
2019-03-27T00:15:39.339Z,61.60
2019-03-27T00:18:09.283Z,61.90
2019-03-27T00:20:39.272Z,62.40
2019-03-27T00:23:09.227Z,62.70
2019-03-27T00:25:40.186Z,62.80
2019-03-27T00:28:10.098Z,62.80
2019-03-27T00:30:40.263Z,62.90
2019-03-27T00:33:10.154Z,63.00
2019-03-27T00:35:40.172Z,63.20
2019-03-27T00:38:10.055Z,63.40
2019-03-27T00:40:40.134Z,63.40
2019-03-27T00:43:10.030Z,63.50
2019-03-27T00:45:40.165Z,63.90
2019-03-27T00:48:10.117Z,63.80
2019-03-27T00:50:40.142Z,63.80
2019-03-27T00:53:10.072Z,64.20
2019-03-27T00:55:40.131Z,64.30
2019-03-27T00:58:10.088Z,64.40
2019-03-27T01:01:12.155Z,65.00
2019-03-27T01:03:42.791Z,66.50
2019-03-27T01:06:12.886Z,67.50
2019-03-27T01:08:43.018Z,67.90
2019-03-27T01:11:12.967Z,68.90
2019-03-27T01:13:42.977Z,68.10
2019-03-27T01:16:12.912Z,69.80
2019-03-27T01:18:43.040Z,72.40
2019-03-27T01:21:12.952Z,72.00
2019-03-27T01:23:43.142Z,73.10
2019-03-27T01:26:13.103Z,72.10
2019-03-27T01:28:43.217Z,72.50
2019-03-27T01:31:13.475Z,73.10
2019-03-27T01:33:43.456Z,71.90
2019-03-27T01:36:13.319Z,71.00
2019-03-27T01:38:43.383Z,70.90
2019-03-27T01:41:13.288Z,70.70
2019-03-27T01:43:43.582Z,70.50
2019-03-27T01:46:14.422Z,70.30
2019-03-27T01:48:46.872Z,70.00
2019-03-27T01:51:17.779Z,69.40
2019-03-27T01:53:54.889Z,68.70
2019-03-27T01:56:27.774Z,68.50
2019-03-27T01:59:13.290Z,69.00
2019-03-27T02:01:43.988Z,68.70
2019-03-27T02:04:17.855Z,69.10
2019-03-27T02:06:49.683Z,69.10
2019-03-27T02:09:22.370Z,69.20
2019-03-27T02:11:53.776Z,69.80
2019-03-27T02:14:49.433Z,70.40
2019-03-27T02:17:20.912Z,72.60
2019-03-27T02:19:53.287Z,74.00
2019-03-27T02:22:34.526Z,75.70
2019-03-27T02:25:10.666Z,76.70
2019-03-27T02:27:43.136Z,77.30
2019-03-27T02:30:16.539Z,79.50
2019-03-27T02:32:49.520Z,79.40
2019-03-27T02:35:22.412Z,81.90
2019-03-27T02:37:55.301Z,82.80
2019-03-27T02:40:26.882Z,85.80
2019-03-27T02:43:02.631Z,85.30
2019-03-27T02:45:36.424Z,86.10
2019-03-27T02:48:07.998Z,86.80
2019-03-27T02:50:41.361Z,87.80
2019-03-27T02:53:12.772Z,88.50
2019-03-27T02:55:45.914Z,89.80
2019-03-27T02:58:18.164Z,90.00
2019-03-27T03:00:55.025Z,90.00
2019-03-27T03:03:32.602Z,90.60
2019-03-27T03:06:03.994Z,91.00
2019-03-27T03:08:42.056Z,91.90
2019-03-27T03:11:14.892Z,92.70
2019-03-27T03:13:46.785Z,93.50
2019-03-27T03:16:18.695Z,93.40
2019-03-27T03:18:50.114Z,94.00
2019-03-27T03:21:23.318Z,94.30
2019-03-27T03:23:55.640Z,94.50
2019-03-27T03:26:29.342Z,94.60
2019-03-27T03:29:03.547Z,94.80
2019-03-27T03:31:39.456Z,95.40
2019-03-27T03:34:13.303Z,95.30
2019-03-27T03:36:43.537Z,95.50
2019-03-27T03:39:26.526Z,95.70
2019-03-27T03:41:57.589Z,95.50
2019-03-27T03:44:31.165Z,95.90
2019-03-27T03:47:07.349Z,96.10
2019-03-27T03:49:37.589Z,96.30
2019-03-27T03:52:07.712Z,96.20
2019-03-27T03:54:40.290Z,96.20
2019-03-27T03:57:10.430Z,96.00
2019-03-27T03:59:42.245Z,96.20
2019-03-27T04:02:13.577Z,96.40
2019-03-27T04:04:45.774Z,96.70
2019-03-27T04:07:15.671Z,96.40
2019-03-27T04:09:46.820Z,96.70
2019-03-27T04:12:16.688Z,96.60
2019-03-27T04:14:46.722Z,96.60
2019-03-27T04:17:17.930Z,96.70
2019-03-27T04:19:48.272Z,97.20
2019-03-27T04:22:18.274Z,97.10
2019-03-27T04:24:48.297Z,97.10
2019-03-27T04:27:18.264Z,97.20
2019-03-27T04:29:48.262Z,97.10
2019-03-27T04:32:18.180Z,97.20
2019-03-27T04:34:50.562Z,97.20
2019-03-27T04:37:20.581Z,97.10
2019-03-27T04:39:50.615Z,97.20
2019-03-27T04:42:20.542Z,97.20
2019-03-27T04:44:50.454Z,97.30
2019-03-27T04:47:31.911Z,97.40
2019-03-27T04:49:52.931Z,97.50
2019-03-27T04:52:25.757Z,97.70
2019-03-27T04:54:55.746Z,97.60
2019-03-27T04:57:25.999Z,97.80
2019-03-27T04:59:55.829Z,97.70
2019-03-27T05:02:25.716Z,97.60
2019-03-27T05:04:55.945Z,97.50
2019-03-27T05:07:27.033Z,97.60
2019-03-27T05:10:00.989Z,97.60
2019-03-27T05:12:30.850Z,97.80
2019-03-27T05:15:00.835Z,98.00
2019-03-27T05:17:44.500Z,97.90
2019-03-27T05:20:02.669Z,97.20
2019-03-27T05:22:32.743Z,97.40
2019-03-27T05:25:02.646Z,97.70
2019-03-27T05:27:36.123Z,98.00
2019-03-27T05:30:05.458Z,98.30
2019-03-27T05:32:35.864Z,98.30
2019-03-27T05:35:06.395Z,98.30
2019-03-27T05:37:36.455Z,98.20
2019-03-27T05:40:07.390Z,97.60
2019-03-27T05:42:44.351Z,97.50
2019-03-27T05:45:14.359Z,97.60
2019-03-27T05:47:44.362Z,98.00
2019-03-27T05:50:14.599Z,97.80
2019-03-27T05:52:44.614Z,97.20
2019-03-27T05:55:14.492Z,97.30
2019-03-27T05:57:45.534Z,97.30
2019-03-27T06:00:17.479Z,97.40
2019-03-27T06:02:47.373Z,97.10
2019-03-27T06:05:17.485Z,97.50
2019-03-27T06:07:47.427Z,97.20
2019-03-27T06:10:17.464Z,97.30
2019-03-27T06:12:47.368Z,96.60
2019-03-27T06:15:17.395Z,96.80
2019-03-27T06:17:47.282Z,97.00
2019-03-27T06:20:17.369Z,96.00
2019-03-27T06:22:47.495Z,96.00
2019-03-27T06:25:17.400Z,96.50
2019-03-27T06:27:47.380Z,95.90
2019-03-27T06:30:17.452Z,96.20
2019-03-27T06:32:47.880Z,96.10
2019-03-27T06:35:20.180Z,95.30
2019-03-27T06:37:49.562Z,96.00
2019-03-27T06:40:19.452Z,95.80
2019-03-27T06:42:50.157Z,95.90
2019-03-27T06:45:21.924Z,95.70
2019-03-27T06:47:53.078Z,95.40
2019-03-27T06:50:23.792Z,94.80
2019-03-27T06:52:53.833Z,94.80
2019-03-27T06:55:25.182Z,93.70
2019-03-27T06:57:55.119Z,93.30
2019-03-27T07:00:35.011Z,93.30
2019-03-27T07:03:06.155Z,93.70
2019-03-27T07:05:36.145Z,93.00
2019-03-27T07:08:06.799Z,93.00
2019-03-27T07:10:37.150Z,93.10
2019-03-27T07:13:07.470Z,93.20
2019-03-27T07:15:37.595Z,92.70
2019-03-27T07:18:07.512Z,91.80
2019-03-27T07:20:40.850Z,91.80
2019-03-27T07:23:10.906Z,90.60
2019-03-27T07:25:40.857Z,91.50
2019-03-27T07:28:10.820Z,90.60
2019-03-27T07:30:40.863Z,90.00
2019-03-27T07:33:10.750Z,90.30
2019-03-27T07:35:41.062Z,90.00
2019-03-27T07:38:12.251Z,89.90
2019-03-27T07:40:42.080Z,88.80
2019-03-27T07:43:12.103Z,88.20
2019-03-27T07:45:41.998Z,88.20
2019-03-27T07:48:12.007Z,85.70
2019-03-27T07:50:41.971Z,86.90
2019-03-27T07:53:12.002Z,87.20
2019-03-27T07:55:41.915Z,86.20
2019-03-27T07:58:11.985Z,86.10
2019-03-27T08:00:41.832Z,86.00
2019-03-27T08:03:14.618Z,85.50
2019-03-27T08:05:45.302Z,86.10
2019-03-27T08:08:15.293Z,85.20
2019-03-27T08:10:45.282Z,85.70
2019-03-27T08:13:15.297Z,84.30
2019-03-27T08:15:45.117Z,82.10
2019-03-27T08:18:15.155Z,80.70
2019-03-27T08:20:45.098Z,79.30
2019-03-27T08:23:15.287Z,78.80
2019-03-27T08:25:45.340Z,78.00
2019-03-27T08:28:15.447Z,76.80
2019-03-27T08:30:45.342Z,73.60
2019-03-27T08:33:15.707Z,72.90
2019-03-27T08:35:45.833Z,70.50
2019-03-27T08:38:17.563Z,70.60
2019-03-27T08:40:47.682Z,67.70
2019-03-27T08:43:21.835Z,70.00
2019-03-27T08:45:50.654Z,70.90
2019-03-27T08:48:20.784Z,71.40
2019-03-27T08:50:50.699Z,73.00
2019-03-27T08:53:21.835Z,74.80
2019-03-27T08:55:52.843Z,76.00
2019-03-27T08:58:22.831Z,74.90
2019-03-27T09:00:56.393Z,75.30
2019-03-27T09:03:27.031Z,76.00
2019-03-27T09:05:57.106Z,76.10
2019-03-27T09:08:27.328Z,77.30
2019-03-27T09:10:57.407Z,79.20
2019-03-27T09:13:28.322Z,80.80
2019-03-27T09:15:58.293Z,81.90
2019-03-27T09:18:28.340Z,82.80
2019-03-27T09:20:58.360Z,82.40
2019-03-27T09:23:28.186Z,82.70
2019-03-27T09:25:58.315Z,82.10
2019-03-27T09:28:28.200Z,81.90
2019-03-27T09:30:58.376Z,82.10
2019-03-27T09:33:28.304Z,81.50
2019-03-27T09:35:59.073Z,81.80
2019-03-27T09:38:29.314Z,81.80
2019-03-27T09:40:59.289Z,83.10
2019-03-27T09:43:29.320Z,83.20
2019-03-27T09:45:59.195Z,83.50
2019-03-27T09:48:29.498Z,84.50
2019-03-27T09:50:59.363Z,84.50
2019-03-27T09:53:29.609Z,85.30
2019-03-27T09:55:59.639Z,83.30
2019-03-27T09:58:29.692Z,79.20
2019-03-27T10:01:05.670Z,74.30
2019-03-27T10:03:38.366Z,74.00
2019-03-27T10:06:08.461Z,73.90
2019-03-27T10:08:39.998Z,73.40
2019-03-27T10:11:11.063Z,73.80
2019-03-27T10:13:42.011Z,72.50
2019-03-27T10:16:11.951Z,72.70
2019-03-27T10:18:41.979Z,74.20
2019-03-27T10:21:11.971Z,75.80
2019-03-27T10:23:41.997Z,76.70
2019-03-27T10:26:11.950Z,77.80
2019-03-27T10:28:44.490Z,78.70
2019-03-27T10:31:16.817Z,78.40
2019-03-27T10:33:46.979Z,78.10
2019-03-27T10:36:16.889Z,77.60
2019-03-27T10:38:50.433Z,76.60
2019-03-27T10:41:23.285Z,75.80
2019-03-27T10:43:53.888Z,75.60
2019-03-27T10:46:24.834Z,74.40
2019-03-27T10:48:59.985Z,72.50
2019-03-27T10:51:29.925Z,72.10
2019-03-27T10:54:04.682Z,69.70
2019-03-27T10:56:34.671Z,69.00
2019-03-27T10:59:05.595Z,70.20
2019-03-27T11:01:35.522Z,70.90
2019-03-27T11:04:05.708Z,71.60
2019-03-27T11:06:35.794Z,73.50
2019-03-27T11:09:09.046Z,73.20
2019-03-27T11:11:39.150Z,74.20
2019-03-27T11:14:09.114Z,75.90
2019-03-27T11:16:39.037Z,76.50
2019-03-27T11:19:09.195Z,76.70
2019-03-27T11:21:39.236Z,75.70
2019-03-27T11:24:10.941Z,75.30
2019-03-27T11:26:42.267Z,74.30
2019-03-27T11:29:12.494Z,73.30
2019-03-27T11:31:45.700Z,71.90
2019-03-27T11:34:15.752Z,70.60
2019-03-27T11:36:45.965Z,68.90
2019-03-27T11:39:15.834Z,68.10
2019-03-27T11:41:45.959Z,67.20
2019-03-27T11:44:16.188Z,65.70
2019-03-27T11:46:46.205Z,65.40
2019-03-27T11:49:28.202Z,63.50
2019-03-27T11:51:58.338Z,62.10
2019-03-27T11:54:28.518Z,60.60
2019-03-27T11:57:10.614Z,59.20
2019-03-27T11:59:53.372Z,55.00
2019-03-27T12:02:12.264Z,52.80
2019-03-27T12:04:42.368Z,51.80
2019-03-27T12:07:15.324Z,52.00
2019-03-27T12:09:45.205Z,51.90
2019-03-27T12:12:32.630Z,52.00
2019-03-27T12:15:15.177Z,49.90
2019-03-27T12:17:45.547Z,47.00
2019-03-27T12:20:15.549Z,46.20
2019-03-27T12:22:57.142Z,45.70
2019-03-27T12:25:21.774Z,46.00
2019-03-27T12:27:51.335Z,46.80
2019-03-27T12:30:36.515Z,53.70
2019-03-27T12:33:06.707Z,55.60
2019-03-27T12:35:37.174Z,56.70
2019-03-27T12:38:07.793Z,57.40
2019-03-27T12:40:38.943Z,56.60
2019-03-27T12:43:12.568Z,57.40
2019-03-27T12:45:42.464Z,59.10
2019-03-27T12:49:15.533Z,59.90
2019-03-27T12:51:45.522Z,60.70
2019-03-27T12:54:18.541Z,61.00
2019-03-27T12:56:48.634Z,60.80
2019-03-27T12:59:19.745Z,60.80
2019-03-27T13:01:49.906Z,58.20
2019-03-27T13:04:21.786Z,55.60
2019-03-27T13:06:54.978Z,59.30
2019-03-27T13:09:25.276Z,58.90
2019-03-27T13:11:55.625Z,57.50
2019-03-27T13:14:27.319Z,57.80
2019-03-27T13:16:57.286Z,59.00
2019-03-27T13:19:27.609Z,59.90
2019-03-27T13:21:59.591Z,60.30
2019-03-27T13:24:31.939Z,60.50
2019-03-27T13:27:01.934Z,61.20
2019-03-27T13:29:37.128Z,61.80
2019-03-27T13:32:09.691Z,62.00
2019-03-27T13:34:44.982Z,62.70
2019-03-27T13:37:15.480Z,64.00
2019-03-27T13:39:46.114Z,64.00
2019-03-27T13:42:16.604Z,64.00
2019-03-27T13:44:46.898Z,63.40
2019-03-27T13:47:18.190Z,63.00
2019-03-27T13:49:50.820Z,61.50
2019-03-27T13:52:20.782Z,60.10
2019-03-27T13:54:50.744Z,58.90
2019-03-27T13:57:23.445Z,58.90
2019-03-27T13:59:55.631Z,59.50
2019-03-27T14:02:25.538Z,60.40
2019-03-27T14:04:55.625Z,60.50
2019-03-27T14:07:26.603Z,58.70
2019-03-27T14:09:56.718Z,58.60
2019-03-27T14:12:27.746Z,58.40
2019-03-27T14:14:58.216Z,58.20
2019-03-27T14:17:30.766Z,58.90
2019-03-27T14:20:00.621Z,57.70
2019-03-27T14:22:39.258Z,58.20
2019-03-27T14:25:12.238Z,57.80
2019-03-27T14:27:45.156Z,55.60
2019-03-27T14:30:17.064Z,55.00
2019-03-27T14:32:47.113Z,55.60
2019-03-27T14:35:18.673Z,54.50
2019-03-27T14:37:49.456Z,52.30
2019-03-27T14:40:22.454Z,52.00
2019-03-27T14:42:52.621Z,50.80
2019-03-27T14:45:22.760Z,49.80
2019-03-27T14:47:52.714Z,48.60
2019-03-27T14:50:22.782Z,50.40
2019-03-27T14:52:54.779Z,48.70
2019-03-27T14:55:27.631Z,48.70
2019-03-27T14:57:57.562Z,49.60
2019-03-27T15:00:27.748Z,50.10
2019-03-27T15:02:57.835Z,49.80
2019-03-27T15:05:28.387Z,50.60
2019-03-27T15:08:00.412Z,50.30
2019-03-27T15:10:31.151Z,50.90
2019-03-27T15:13:01.028Z,50.10
2019-03-27T15:15:31.237Z,49.90
2019-03-27T15:18:01.219Z,50.00
2019-03-27T15:20:31.298Z,50.50
2019-03-27T15:23:01.218Z,50.30
2019-03-27T15:25:33.670Z,51.20
2019-03-27T15:28:03.648Z,51.20
2019-03-27T15:30:39.351Z,51.80
2019-03-27T15:33:09.665Z,50.70
2019-03-27T15:35:40.172Z,51.50
2019-03-27T15:38:13.114Z,51.80
2019-03-27T15:40:46.318Z,51.50
2019-03-27T15:43:17.251Z,51.60
2019-03-27T15:45:47.405Z,52.10
2019-03-27T15:48:19.934Z,52.50
2019-03-27T15:50:57.129Z,52.60
2019-03-27T15:53:22.033Z,53.40
2019-03-27T15:55:57.581Z,53.30
2019-03-27T15:58:29.579Z,53.30
2019-03-27T16:00:59.719Z,53.50
2019-03-27T16:03:29.832Z,53.10
2019-03-27T16:06:06.379Z,53.40
2019-03-27T16:08:36.744Z,53.60
2019-03-27T16:11:06.970Z,53.70
2019-03-27T16:13:37.008Z,53.90
2019-03-27T16:16:07.147Z,55.00
2019-03-27T16:18:37.704Z,54.60
2019-03-27T16:21:11.575Z,55.10
2019-03-27T16:23:42.039Z,55.10
2019-03-27T16:26:12.521Z,55.00
2019-03-27T16:28:42.721Z,55.60
2019-03-27T16:31:12.990Z,56.10
2019-03-27T16:33:45.623Z,56.80
2019-03-27T16:36:20.052Z,57.20
2019-03-27T16:38:57.216Z,57.50
2019-03-27T16:41:28.447Z,57.60
2019-03-27T16:44:06.505Z,58.20
2019-03-27T16:46:37.888Z,58.40
2019-03-27T16:49:09.103Z,59.00
2019-03-27T16:51:39.499Z,60.90
2019-03-27T16:54:16.474Z,63.50
2019-03-27T16:56:51.336Z,64.80
2019-03-27T16:59:23.532Z,65.60
2019-03-27T17:01:54.257Z,67.20
2019-03-27T17:04:24.329Z,67.90
2019-03-27T17:06:54.450Z,69.00
2019-03-27T17:09:24.659Z,70.00
2019-03-27T17:11:54.744Z,70.30
2019-03-27T17:14:27.986Z,70.90
2019-03-27T17:16:58.126Z,71.70
2019-03-27T17:19:29.343Z,72.10
2019-03-27T17:21:59.584Z,72.70
2019-03-27T17:24:29.749Z,72.90
2019-03-27T17:27:00.899Z,73.40
2019-03-27T17:29:30.999Z,73.60
2019-03-27T17:32:06.928Z,73.70
2019-03-27T17:34:38.005Z,74.00
2019-03-27T17:37:13.820Z,74.20
2019-03-27T17:39:47.619Z,74.20
2019-03-27T17:42:18.082Z,74.50
2019-03-27T17:45:22.184Z,74.80
2019-03-27T17:47:52.857Z,74.80
2019-03-27T17:50:30.624Z,74.90
2019-03-27T17:53:01.778Z,75.70
2019-03-27T17:55:34.094Z,76.40
2019-03-27T17:58:08.310Z,77.50
2019-03-27T18:00:54.079Z,78.10
2019-03-27T18:03:28.085Z,79.10
2019-03-27T18:06:01.829Z,79.80
2019-03-27T18:17:01.871Z,82.90
2019-03-27T18:17:26.486Z,84.00
2019-03-27T18:20:01.262Z,84.80
2019-03-27T18:22:31.688Z,85.30
2019-03-27T18:25:01.978Z,86.10
2019-03-27T18:27:43.738Z,86.50
2019-03-27T18:30:16.829Z,86.90
2019-03-27T18:32:58.282Z,87.40
2019-03-27T18:35:31.689Z,87.50
2019-03-27T18:38:13.043Z,87.80
2019-03-27T18:40:45.844Z,87.90
2019-03-27T18:43:21.060Z,88.20
2019-03-27T18:45:54.581Z,88.60
2019-03-27T18:48:26.507Z,89.00
2019-03-27T18:50:57.172Z,89.20
2019-03-27T18:53:33.985Z,89.50
2019-03-27T18:56:06.211Z,89.90
2019-03-27T18:58:37.399Z,89.80
2019-03-27T19:01:13.177Z,89.90
2019-03-27T19:03:43.110Z,90.10
2019-03-27T19:06:15.184Z,90.20
2019-03-27T19:08:45.864Z,90.20
2019-03-27T19:11:18.251Z,90.40
2019-03-27T19:13:49.646Z,90.40
2019-03-27T19:16:21.480Z,90.50
2019-03-27T19:18:51.445Z,90.60
2019-03-27T19:21:28.755Z,90.70
2019-03-27T19:24:13.220Z,90.70
2019-03-27T19:26:31.919Z,90.90
2019-03-27T19:29:01.898Z,91.00
2019-03-27T19:31:31.964Z,91.00
2019-03-27T19:34:02.056Z,91.10
2019-03-27T19:36:33.691Z,91.20
2019-03-27T19:39:05.414Z,91.30
2019-03-27T19:41:36.941Z,91.40
2019-03-27T19:44:14.533Z,91.40
2019-03-27T19:46:54.202Z,91.50
2019-03-27T19:49:30.538Z,91.40
2019-03-27T19:52:00.620Z,91.50
2019-03-27T19:54:30.587Z,91.50
2019-03-27T19:57:00.506Z,91.50
2019-03-27T19:59:31.038Z,91.50
2019-03-27T20:02:00.990Z,91.60
2019-03-27T20:04:31.035Z,91.70
2019-03-27T20:07:01.304Z,91.80
2019-03-27T20:09:36.018Z,91.70
2019-03-27T20:12:05.952Z,91.80
2019-03-27T20:14:37.523Z,91.80
2019-03-27T20:17:08.272Z,91.80
2019-03-27T20:19:38.195Z,91.70
2019-03-27T20:22:08.671Z,91.80
2019-03-27T20:24:41.275Z,91.70
2019-03-27T20:27:10.478Z,91.60
2019-03-27T20:29:40.527Z,91.70
2019-03-27T20:32:10.446Z,91.60
2019-03-27T20:34:41.149Z,91.40
2019-03-27T20:37:12.487Z,91.40
2019-03-27T20:39:45.644Z,91.50
2019-03-27T20:42:15.737Z,91.40
2019-03-27T20:44:52.081Z,91.50
2019-03-27T20:47:24.134Z,91.70
2019-03-27T20:49:57.736Z,91.60
2019-03-27T20:52:29.002Z,91.50
2019-03-27T20:55:00.282Z,91.60
2019-03-27T20:57:30.437Z,91.60
2019-03-27T21:00:00.397Z,91.60
2019-03-27T21:02:32.130Z,91.60
2019-03-27T21:05:06.641Z,91.80
2019-03-27T21:07:38.683Z,91.60
2019-03-27T21:10:09.829Z,91.60
2019-03-27T21:12:41.320Z,91.60
2019-03-27T21:15:14.131Z,91.70
2019-03-27T21:18:50.930Z,91.70
2019-03-27T21:20:21.573Z,91.70
2019-03-27T21:22:51.443Z,91.80
2019-03-27T21:25:24.255Z,91.90
2019-03-27T21:27:56.399Z,91.90
2019-03-27T21:30:26.809Z,92.10
2019-03-27T21:32:56.880Z,92.10
2019-03-27T21:35:26.980Z,91.90
2019-03-27T21:37:56.971Z,92.20
2019-03-27T21:40:27.368Z,91.90
2019-03-27T21:43:00.018Z,91.80
2019-03-27T21:45:32.203Z,91.80
2019-03-27T21:48:02.844Z,91.90
2019-03-27T21:50:34.055Z,92.00
2019-03-27T21:53:05.433Z,91.90
2019-03-27T21:55:42.730Z,92.00
2019-03-27T21:58:09.168Z,92.20
2019-03-27T22:00:41.573Z,92.20
2019-03-27T22:03:13.086Z,92.20
2019-03-27T22:05:43.488Z,92.30
2019-03-27T22:08:13.489Z,92.20
2019-03-27T22:10:48.000Z,92.30
2019-03-27T22:13:17.931Z,92.30
2019-03-27T22:15:48.142Z,92.40
2019-03-27T22:18:18.035Z,92.30
2019-03-27T22:20:52.533Z,92.30
2019-03-27T22:23:24.950Z,92.40
2019-03-27T22:25:54.945Z,92.50
2019-03-27T22:28:27.077Z,92.60
2019-03-27T22:30:57.061Z,92.50
2019-03-27T22:33:27.275Z,92.50
2019-03-27T22:35:57.856Z,92.50
2019-03-27T22:38:28.307Z,92.40
2019-03-27T22:40:58.195Z,92.40
2019-03-27T22:43:29.741Z,92.50
2019-03-27T22:45:59.573Z,92.50
2019-03-27T22:48:32.709Z,92.60
2019-03-27T22:51:02.633Z,92.60
2019-03-27T22:53:33.143Z,92.20
2019-03-27T22:56:03.001Z,92.60
2019-03-27T22:58:36.098Z,92.60
2019-03-27T23:01:06.246Z,92.70
2019-03-27T23:03:36.373Z,92.60
2019-03-27T23:06:08.122Z,92.80
2019-03-27T23:08:38.890Z,92.70
2019-03-27T23:11:08.899Z,92.60
2019-03-27T23:13:40.088Z,92.60
2019-03-27T23:16:10.209Z,92.40
2019-03-27T23:18:40.209Z,92.20
2019-03-27T23:21:10.125Z,92.10
2019-03-27T23:23:44.172Z,91.90
2019-03-27T23:26:15.365Z,91.70
2019-03-27T23:28:46.737Z,91.50
2019-03-27T23:31:16.945Z,91.20
2019-03-27T23:33:47.733Z,91.00
2019-03-27T23:36:24.722Z,90.70
2019-03-27T23:38:54.591Z,90.50
2019-03-27T23:41:24.716Z,90.40
2019-03-27T23:43:54.631Z,90.30
2019-03-27T23:46:25.295Z,90.20
2019-03-27T23:48:56.494Z,90.20
2019-03-27T23:51:26.694Z,90.30
2019-03-27T23:54:01.991Z,90.20
2019-03-27T23:56:31.982Z,90.10
2019-03-27T23:59:02.030Z,90.10
